SWA223 KLBB-KHOU
Flight info
| Callsign | SWA223 |
|---|---|
| Flight time | 1h 11m |
| Altitude | 39000 |
| Route | ABI DILLO KIDDZ5 |
| Aircraft | B738/M-SDE2E3FGHIRWXY/LB1 |
Departure
| Time | 2026-04-12 04:07 |
|---|---|
| Airport | Lubbock Preston Smith International Airport (KLBB) |
Arrival
| Time | 2026-04-12 05:18 |
|---|---|
| Airport | William P. Hobby Airport (KHOU) |
| Time | Latitude | Longitude | Altitude | Speed | Heading |
|---|---|---|---|---|---|
| 2026-04-12 04:00 | 33.65732 | -101.82258 | 3284 ft | 0 kts | 182° |
| 2026-04-12 04:02 | 33.65744 | -101.82258 | 3263 ft | 2 kts | 182° |
| 2026-04-12 04:02 | 33.65776 | -101.82257 | 3264 ft | 2 kts | 185° |
| 2026-04-12 04:02 | 33.65792 | -101.82252 | 3262 ft | 2 kts | 206° |
| 2026-04-12 04:03 | 33.65806 | -101.82243 | 3264 ft | 2 kts | 219° |
| 2026-04-12 04:03 | 33.65808 | -101.82241 | 3262 ft | 0 kts | 223° |
| 2026-04-12 04:04 | 33.65806 | -101.82243 | 3264 ft | 1 kts | 223° |
| 2026-04-12 04:04 | 33.65798 | -101.82274 | 3263 ft | 7 kts | 269° |
| 2026-04-12 04:04 | 33.65832 | -101.82321 | 3265 ft | 9 kts | 329° |
| 2026-04-12 04:05 | 33.65884 | -101.82355 | 3263 ft | 9 kts | 332° |
| 2026-04-12 04:05 | 33.65947 | -101.82382 | 3265 ft | 12 kts | 346° |
| 2026-04-12 04:05 | 33.66026 | -101.82350 | 3264 ft | 13 kts | 62° |
| 2026-04-12 04:05 | 33.66074 | -101.82271 | 3266 ft | 13 kts | 11° |
| 2026-04-12 04:06 | 33.66161 | -101.82269 | 3267 ft | 12 kts | 359° |
| 2026-04-12 04:06 | 33.66215 | -101.82258 | 3267 ft | 1 kts | 63° |
| 2026-04-12 04:06 | 33.66225 | -101.82029 | 3269 ft | 70 kts | 90° |
| 2026-04-12 04:06 | 33.66233 | -101.81097 | 3264 ft | 150 kts | 91° |
| 2026-04-12 04:07 | 33.66222 | -101.79674 | 3826 ft | 181 kts | 93° |
| 2026-04-12 04:07 | 33.65903 | -101.78170 | 4800 ft | 187 kts | 118° |
| 2026-04-12 04:07 | 33.65294 | -101.76787 | 5858 ft | 191 kts | 129° |
| 2026-04-12 04:07 | 33.64454 | -101.75472 | 6409 ft | 210 kts | 134° |
| 2026-04-12 04:08 | 33.63452 | -101.74032 | 6640 ft | 239 kts | 133° |
| 2026-04-12 04:08 | 33.62353 | -101.72428 | 6856 ft | 266 kts | 133° |
| 2026-04-12 04:08 | 33.61167 | -101.70645 | 7418 ft | 278 kts | 132° |
| 2026-04-12 04:08 | 33.59976 | -101.68798 | 8204 ft | 282 kts | 132° |
| 2026-04-12 04:09 | 33.58785 | -101.66915 | 8959 ft | 287 kts | 132° |
| 2026-04-12 04:09 | 33.57576 | -101.64972 | 9697 ft | 293 kts | 132° |
| 2026-04-12 04:09 | 33.56356 | -101.62988 | 10361 ft | 301 kts | 131° |
| 2026-04-12 04:09 | 33.55063 | -101.60879 | 10527 ft | 327 kts | 131° |
| 2026-04-12 04:10 | 33.53676 | -101.58605 | 10743 ft | 348 kts | 131° |
| 2026-04-12 04:10 | 33.52234 | -101.56220 | 11280 ft | 357 kts | 130° |
| 2026-04-12 04:10 | 33.50775 | -101.53791 | 11995 ft | 360 kts | 130° |
| 2026-04-12 04:10 | 33.49332 | -101.51382 | 12744 ft | 362 kts | 130° |
| 2026-04-12 04:11 | 33.47856 | -101.48919 | 13465 ft | 366 kts | 130° |
| 2026-04-12 04:11 | 33.46358 | -101.46421 | 14146 ft | 371 kts | 130° |
| 2026-04-12 04:11 | 33.44848 | -101.43907 | 14862 ft | 373 kts | 130° |
| 2026-04-12 04:11 | 33.43331 | -101.41379 | 15622 ft | 375 kts | 130° |
| 2026-04-12 04:12 | 33.41803 | -101.38837 | 16340 ft | 378 kts | 130° |
| 2026-04-12 04:12 | 33.40262 | -101.36277 | 17051 ft | 381 kts | 130° |
| 2026-04-12 04:12 | 33.38707 | -101.33696 | 17733 ft | 384 kts | 130° |
| 2026-04-12 04:12 | 33.37139 | -101.31095 | 18382 ft | 387 kts | 130° |
| 2026-04-12 04:13 | 33.35553 | -101.28467 | 18877 ft | 393 kts | 130° |
| 2026-04-12 04:13 | 33.33939 | -101.25796 | 19337 ft | 399 kts | 130° |
| 2026-04-12 04:13 | 33.32328 | -101.23130 | 19890 ft | 402 kts | 130° |
| 2026-04-12 04:13 | 33.30686 | -101.20414 | 20466 ft | 405 kts | 130° |
| 2026-04-12 04:14 | 33.29029 | -101.17675 | 21001 ft | 409 kts | 130° |
| 2026-04-12 04:14 | 33.27354 | -101.14908 | 21506 ft | 413 kts | 130° |
| 2026-04-12 04:14 | 33.25659 | -101.12113 | 22011 ft | 417 kts | 130° |
| 2026-04-12 04:14 | 33.23950 | -101.09293 | 22527 ft | 421 kts | 131° |
| 2026-04-12 04:15 | 33.22227 | -101.06454 | 23010 ft | 424 kts | 131° |
| 2026-04-12 04:15 | 33.20484 | -101.03586 | 23488 ft | 428 kts | 131° |
| 2026-04-12 04:15 | 33.18749 | -101.00731 | 23876 ft | 432 kts | 131° |
| 2026-04-12 04:15 | 33.16970 | -100.97809 | 24211 ft | 438 kts | 131° |
| 2026-04-12 04:16 | 33.15176 | -100.94861 | 24641 ft | 439 kts | 131° |
| 2026-04-12 04:16 | 33.13381 | -100.91912 | 25169 ft | 439 kts | 131° |
| 2026-04-12 04:16 | 33.11585 | -100.88964 | 25624 ft | 440 kts | 131° |
| 2026-04-12 04:16 | 33.09776 | -100.85999 | 26025 ft | 443 kts | 132° |
| 2026-04-12 04:17 | 33.07955 | -100.83018 | 26411 ft | 446 kts | 132° |
| 2026-04-12 04:17 | 33.06122 | -100.80020 | 26812 ft | 448 kts | 132° |
| 2026-04-12 04:17 | 33.04283 | -100.77013 | 27226 ft | 450 kts | 132° |
| 2026-04-12 04:17 | 33.02459 | -100.74035 | 27613 ft | 452 kts | 133° |
| 2026-04-12 04:18 | 33.00603 | -100.71004 | 27992 ft | 454 kts | 133° |
| 2026-04-12 04:18 | 32.98737 | -100.67962 | 28346 ft | 456 kts | 133° |
| 2026-04-12 04:18 | 32.96857 | -100.64900 | 28723 ft | 458 kts | 133° |
| 2026-04-12 04:18 | 32.94975 | -100.61835 | 29098 ft | 460 kts | 133° |
| 2026-04-12 04:19 | 32.93080 | -100.58753 | 29439 ft | 462 kts | 133° |
| 2026-04-12 04:19 | 32.91177 | -100.55662 | 29749 ft | 464 kts | 131° |
| 2026-04-12 04:19 | 32.89256 | -100.52543 | 29892 ft | 470 kts | 131° |
| 2026-04-12 04:19 | 32.87337 | -100.49431 | 30126 ft | 474 kts | 131° |
| 2026-04-12 04:20 | 32.85392 | -100.46274 | 30486 ft | 473 kts | 131° |
| 2026-04-12 04:20 | 32.83454 | -100.43129 | 30948 ft | 470 kts | 131° |
| 2026-04-12 04:20 | 32.81533 | -100.40012 | 31479 ft | 465 kts | 131° |
| 2026-04-12 04:20 | 32.79627 | -100.36924 | 32010 ft | 461 kts | 131° |
| 2026-04-12 04:21 | 32.77739 | -100.33870 | 32507 ft | 457 kts | 131° |
| 2026-04-12 04:21 | 32.75858 | -100.30834 | 32884 ft | 456 kts | 131° |
| 2026-04-12 04:21 | 32.73977 | -100.27802 | 33259 ft | 455 kts | 131° |
| 2026-04-12 04:21 | 32.72105 | -100.24786 | 33690 ft | 452 kts | 131° |
| 2026-04-12 04:22 | 32.70248 | -100.21794 | 34160 ft | 448 kts | 131° |
| 2026-04-12 04:22 | 32.68403 | -100.18824 | 34490 ft | 447 kts | 131° |
| 2026-04-12 04:22 | 32.66566 | -100.15876 | 34483 ft | 455 kts | 131° |
| 2026-04-12 04:22 | 32.64673 | -100.12841 | 34586 ft | 459 kts | 131° |
| 2026-04-12 04:23 | 32.62775 | -100.09793 | 34900 ft | 458 kts | 131° |
| 2026-04-12 04:23 | 32.60894 | -100.06770 | 35357 ft | 453 kts | 131° |
| 2026-04-12 04:23 | 32.59031 | -100.03778 | 35800 ft | 449 kts | 131° |
| 2026-04-12 04:23 | 32.57175 | -100.00804 | 36099 ft | 449 kts | 132° |
| 2026-04-12 04:24 | 32.55311 | -99.97823 | 36301 ft | 451 kts | 132° |
| 2026-04-12 04:24 | 32.53444 | -99.94837 | 36543 ft | 451 kts | 132° |
| 2026-04-12 04:24 | 32.51580 | -99.91858 | 36898 ft | 448 kts | 132° |
| 2026-04-12 04:24 | 32.49729 | -99.88971 | 37246 ft | 443 kts | 137° |
| 2026-04-12 04:25 | 32.47575 | -99.86395 | 37371 ft | 439 kts | 145° |
| 2026-04-12 04:25 | 32.45136 | -99.84255 | 37514 ft | 434 kts | 155° |
| 2026-04-12 04:25 | 32.42514 | -99.82526 | 37838 ft | 429 kts | 157° |
| 2026-04-12 04:25 | 32.39888 | -99.80850 | 38080 ft | 429 kts | 158° |
| 2026-04-12 04:26 | 32.37241 | -99.79170 | 38060 ft | 435 kts | 158° |
| 2026-04-12 04:26 | 32.31898 | -99.75755 | 38013 ft | 438 kts | 157° |
| 2026-04-12 04:27 | 32.26620 | -99.72343 | 38276 ft | 433 kts | 157° |
| 2026-04-12 04:27 | 32.23989 | -99.70636 | 38655 ft | 429 kts | 156° |
| 2026-04-12 04:27 | 32.21376 | -99.68939 | 38853 ft | 429 kts | 156° |
| 2026-04-12 04:28 | 32.16106 | -99.65532 | 39029 ft | 434 kts | 156° |
| 2026-04-12 04:28 | 32.10779 | -99.62092 | 39049 ft | 437 kts | 156° |
| 2026-04-12 04:29 | 32.05470 | -99.58664 | 39058 ft | 438 kts | 156° |
| 2026-04-12 04:29 | 32.00129 | -99.55219 | 39058 ft | 438 kts | 156° |
| 2026-04-12 04:30 | 31.94782 | -99.51775 | 39061 ft | 437 kts | 157° |
| 2026-04-12 04:30 | 31.89442 | -99.48342 | 39071 ft | 438 kts | 157° |
| 2026-04-12 04:31 | 31.84105 | -99.44912 | 39085 ft | 437 kts | 158° |
| 2026-04-12 04:31 | 31.78793 | -99.41506 | 39092 ft | 438 kts | 158° |
| 2026-04-12 04:32 | 31.73443 | -99.38082 | 39071 ft | 439 kts | 158° |
| 2026-04-12 04:32 | 31.68087 | -99.34657 | 39047 ft | 438 kts | 158° |
| 2026-04-12 04:33 | 31.62719 | -99.31228 | 39044 ft | 439 kts | 158° |
| 2026-04-12 04:33 | 31.57384 | -99.27825 | 39027 ft | 440 kts | 158° |
| 2026-04-12 04:34 | 31.52010 | -99.24401 | 39047 ft | 440 kts | 158° |
| 2026-04-12 04:34 | 31.46628 | -99.20977 | 39039 ft | 440 kts | 158° |
| 2026-04-12 04:35 | 31.41237 | -99.17552 | 39065 ft | 441 kts | 159° |
| 2026-04-12 04:35 | 31.35835 | -99.14125 | 39062 ft | 442 kts | 159° |
| 2026-04-12 04:36 | 31.30418 | -99.10692 | 39058 ft | 443 kts | 159° |
| 2026-04-12 04:36 | 31.25029 | -99.07282 | 39070 ft | 444 kts | 158° |
| 2026-04-12 04:37 | 31.19581 | -99.03838 | 39034 ft | 446 kts | 159° |
| 2026-04-12 04:37 | 31.14125 | -99.00393 | 39060 ft | 446 kts | 159° |
| 2026-04-12 04:38 | 31.08652 | -98.96944 | 39061 ft | 448 kts | 159° |
| 2026-04-12 04:38 | 31.03156 | -98.93484 | 39049 ft | 449 kts | 159° |
| 2026-04-12 04:39 | 30.97687 | -98.90044 | 39039 ft | 451 kts | 159° |
| 2026-04-12 04:39 | 30.92166 | -98.86576 | 39054 ft | 451 kts | 160° |
| 2026-04-12 04:40 | 30.86648 | -98.83114 | 39081 ft | 451 kts | 160° |
| 2026-04-12 04:40 | 30.81368 | -98.79085 | 39028 ft | 473 kts | 137° |
| 2026-04-12 04:40 | 30.79559 | -98.75915 | 39144 ft | 484 kts | 121° |
| 2026-04-12 04:41 | 30.78557 | -98.72122 | 39089 ft | 498 kts | 103° |
| 2026-04-12 04:41 | 30.78084 | -98.68148 | 39208 ft | 496 kts | 103° |
| 2026-04-12 04:41 | 30.77634 | -98.64160 | 39124 ft | 499 kts | 103° |
| 2026-04-12 04:42 | 30.76699 | -98.56166 | 39114 ft | 499 kts | 103° |
| 2026-04-12 04:42 | 30.75691 | -98.48180 | 39110 ft | 499 kts | 104° |
| 2026-04-12 04:43 | 30.74133 | -98.36245 | 39110 ft | 500 kts | 104° |
| 2026-04-12 04:43 | 30.73085 | -98.28245 | 39107 ft | 501 kts | 104° |
| 2026-04-12 04:44 | 30.72034 | -98.20242 | 39120 ft | 501 kts | 104° |
| 2026-04-12 04:44 | 30.70978 | -98.12236 | 39105 ft | 502 kts | 104° |
| 2026-04-12 04:45 | 30.69924 | -98.04283 | 39096 ft | 501 kts | 103° |
| 2026-04-12 04:45 | 30.68857 | -97.96306 | 39114 ft | 493 kts | 103° |
| 2026-04-12 04:46 | 30.68337 | -97.92427 | 39097 ft | 479 kts | 103° |
| 2026-04-12 04:46 | 30.67831 | -97.88661 | 39101 ft | 465 kts | 103° |
| 2026-04-12 04:46 | 30.67337 | -97.85005 | 39107 ft | 451 kts | 104° |
| 2026-04-12 04:46 | 30.66853 | -97.81440 | 39111 ft | 445 kts | 104° |
| 2026-04-12 04:47 | 30.65873 | -97.74336 | 39133 ft | 454 kts | 104° |
| 2026-04-12 04:47 | 30.64864 | -97.67034 | 39143 ft | 463 kts | 104° |
| 2026-04-12 04:48 | 30.63840 | -97.59593 | 39150 ft | 469 kts | 104° |
| 2026-04-12 04:48 | 30.62815 | -97.52143 | 39131 ft | 464 kts | 103° |
| 2026-04-12 04:49 | 30.61806 | -97.44830 | 39095 ft | 454 kts | 103° |
| 2026-04-12 04:49 | 30.60814 | -97.37706 | 38960 ft | 447 kts | 103° |
| 2026-04-12 04:50 | 30.60315 | -97.34139 | 38190 ft | 449 kts | 103° |
| 2026-04-12 04:50 | 30.59807 | -97.30535 | 37048 ft | 458 kts | 103° |
| 2026-04-12 04:50 | 30.59284 | -97.26829 | 35771 ft | 471 kts | 102° |
| 2026-04-12 04:50 | 30.58749 | -97.23038 | 34524 ft | 483 kts | 102° |
| 2026-04-12 04:51 | 30.58198 | -97.19130 | 33377 ft | 496 kts | 102° |
| 2026-04-12 04:51 | 30.57640 | -97.15155 | 32351 ft | 503 kts | 102° |
| 2026-04-12 04:51 | 30.57078 | -97.11158 | 31771 ft | 497 kts | 102° |
| 2026-04-12 04:51 | 30.56519 | -97.07205 | 30776 ft | 496 kts | 102° |
| 2026-04-12 04:52 | 30.55808 | -97.03358 | 29627 ft | 495 kts | 108° |
| 2026-04-12 04:52 | 30.54805 | -96.99548 | 28333 ft | 493 kts | 111° |
| 2026-04-12 04:52 | 30.53701 | -96.95770 | 26943 ft | 495 kts | 112° |
| 2026-04-12 04:52 | 30.52592 | -96.91982 | 25596 ft | 497 kts | 111° |
| 2026-04-12 04:53 | 30.51526 | -96.88188 | 24492 ft | 492 kts | 111° |
| 2026-04-12 04:53 | 30.50517 | -96.84443 | 23896 ft | 475 kts | 111° |
| 2026-04-12 04:53 | 30.48591 | -96.77247 | 22061 ft | 450 kts | 110° |
| 2026-04-12 04:54 | 30.47671 | -96.73877 | 21667 ft | 430 kts | 111° |
| 2026-04-12 04:54 | 30.46792 | -96.70698 | 21345 ft | 411 kts | 111° |
| 2026-04-12 04:54 | 30.45928 | -96.67585 | 20855 ft | 399 kts | 111° |
| 2026-04-12 04:54 | 30.45091 | -96.64572 | 20428 ft | 388 kts | 111° |
| 2026-04-12 04:55 | 30.44267 | -96.61602 | 20020 ft | 386 kts | 111° |
| 2026-04-12 04:55 | 30.43446 | -96.58646 | 19591 ft | 384 kts | 111° |
| 2026-04-12 04:55 | 30.42602 | -96.55716 | 19151 ft | 382 kts | 116° |
| 2026-04-12 04:55 | 30.41259 | -96.53107 | 18751 ft | 374 kts | 129° |
| 2026-04-12 04:56 | 30.39755 | -96.50656 | 18241 ft | 375 kts | 129° |
| 2026-04-12 04:56 | 30.38260 | -96.48202 | 17836 ft | 371 kts | 128° |
| 2026-04-12 04:56 | 30.36789 | -96.45766 | 17305 ft | 367 kts | 128° |
| 2026-04-12 04:56 | 30.35362 | -96.43386 | 16811 ft | 360 kts | 127° |
| 2026-04-12 04:57 | 30.33951 | -96.41018 | 16397 ft | 356 kts | 127° |
| 2026-04-12 04:57 | 30.32547 | -96.38662 | 15939 ft | 355 kts | 127° |
| 2026-04-12 04:57 | 30.31150 | -96.36316 | 15529 ft | 352 kts | 127° |
| 2026-04-12 04:57 | 30.29778 | -96.34011 | 15116 ft | 344 kts | 127° |
| 2026-04-12 04:58 | 30.28434 | -96.31754 | 14722 ft | 337 kts | 127° |
| 2026-04-12 04:58 | 30.27120 | -96.29550 | 14332 ft | 330 kts | 127° |
| 2026-04-12 04:58 | 30.25826 | -96.27380 | 13954 ft | 327 kts | 127° |
| 2026-04-12 04:58 | 30.24534 | -96.25219 | 13503 ft | 326 kts | 127° |
| 2026-04-12 04:59 | 30.23258 | -96.23087 | 13049 ft | 330 kts | 128° |
| 2026-04-12 04:59 | 30.21647 | -96.21194 | 12567 ft | 332 kts | 152° |
| 2026-04-12 04:59 | 30.19618 | -96.20050 | 12319 ft | 319 kts | 159° |
| 2026-04-12 04:59 | 30.17604 | -96.19007 | 11884 ft | 313 kts | 158° |
| 2026-04-12 05:00 | 30.15673 | -96.17998 | 11774 ft | 297 kts | 158° |
| 2026-04-12 05:00 | 30.13830 | -96.17024 | 11719 ft | 290 kts | 158° |
| 2026-04-12 05:00 | 30.11925 | -96.16013 | 11695 ft | 312 kts | 158° |
| 2026-04-12 05:00 | 30.09929 | -96.14948 | 11616 ft | 318 kts | 158° |
| 2026-04-12 05:01 | 30.07942 | -96.13885 | 11570 ft | 319 kts | 158° |
| 2026-04-12 05:01 | 30.05926 | -96.12806 | 11520 ft | 320 kts | 158° |
| 2026-04-12 05:01 | 30.03925 | -96.11687 | 11470 ft | 320 kts | 156° |
| 2026-04-12 05:01 | 30.01934 | -96.10541 | 11443 ft | 319 kts | 155° |
| 2026-04-12 05:02 | 29.99951 | -96.09394 | 11398 ft | 319 kts | 156° |
| 2026-04-12 05:02 | 29.97969 | -96.08250 | 11359 ft | 318 kts | 156° |
| 2026-04-12 05:02 | 29.95990 | -96.07110 | 11315 ft | 317 kts | 156° |
| 2026-04-12 05:02 | 29.94014 | -96.05975 | 11271 ft | 317 kts | 156° |
| 2026-04-12 05:03 | 29.92067 | -96.04859 | 11221 ft | 317 kts | 156° |
| 2026-04-12 05:03 | 29.90094 | -96.03729 | 11185 ft | 317 kts | 156° |
| 2026-04-12 05:03 | 29.88120 | -96.02599 | 11131 ft | 317 kts | 156° |
| 2026-04-12 05:03 | 29.86148 | -96.01471 | 11085 ft | 316 kts | 156° |
| 2026-04-12 05:04 | 29.84178 | -96.00345 | 11035 ft | 316 kts | 156° |
| 2026-04-12 05:04 | 29.82210 | -95.99209 | 10944 ft | 318 kts | 154° |
| 2026-04-12 05:04 | 29.80267 | -95.97952 | 10722 ft | 320 kts | 152° |
| 2026-04-12 05:04 | 29.78357 | -95.96665 | 10548 ft | 315 kts | 152° |
| 2026-04-12 05:05 | 29.76513 | -95.95430 | 10357 ft | 307 kts | 153° |
| 2026-04-12 05:05 | 29.74661 | -95.94202 | 10155 ft | 300 kts | 153° |
| 2026-04-12 05:05 | 29.72894 | -95.93037 | 9968 ft | 294 kts | 153° |
| 2026-04-12 05:05 | 29.71153 | -95.91905 | 9957 ft | 280 kts | 153° |
| 2026-04-12 05:06 | 29.69459 | -95.90811 | 9520 ft | 283 kts | 153° |
| 2026-04-12 05:06 | 29.67767 | -95.89718 | 9336 ft | 276 kts | 153° |
| 2026-04-12 05:06 | 29.66090 | -95.88635 | 9071 ft | 273 kts | 153° |
| 2026-04-12 05:06 | 29.64578 | -95.87338 | 8803 ft | 274 kts | 135° |
| 2026-04-12 05:07 | 29.63367 | -95.85690 | 8673 ft | 267 kts | 132° |
| 2026-04-12 05:07 | 29.62200 | -95.84076 | 8430 ft | 264 kts | 132° |
| 2026-04-12 05:07 | 29.61026 | -95.82461 | 8241 ft | 264 kts | 133° |
| 2026-04-12 05:07 | 29.59840 | -95.80840 | 8025 ft | 265 kts | 133° |
| 2026-04-12 05:08 | 29.58651 | -95.79223 | 7829 ft | 265 kts | 133° |
| 2026-04-12 05:08 | 29.57461 | -95.77609 | 7620 ft | 263 kts | 133° |
| 2026-04-12 05:08 | 29.56287 | -95.76019 | 7415 ft | 259 kts | 133° |
| 2026-04-12 05:08 | 29.55140 | -95.74469 | 7208 ft | 251 kts | 133° |
| 2026-04-12 05:09 | 29.54015 | -95.72951 | 7019 ft | 249 kts | 133° |
| 2026-04-12 05:09 | 29.52900 | -95.71448 | 6809 ft | 245 kts | 133° |
| 2026-04-12 05:09 | 29.51828 | -95.70002 | 6591 ft | 236 kts | 133° |
| 2026-04-12 05:09 | 29.50783 | -95.68595 | 6414 ft | 227 kts | 133° |
| 2026-04-12 05:10 | 29.49776 | -95.67239 | 6228 ft | 219 kts | 133° |
| 2026-04-12 05:10 | 29.48803 | -95.65931 | 6062 ft | 213 kts | 133° |
| 2026-04-12 05:10 | 29.48054 | -95.64466 | 5824 ft | 219 kts | 107° |
| 2026-04-12 05:10 | 29.47866 | -95.62741 | 5760 ft | 218 kts | 100° |
| 2026-04-12 05:11 | 29.47732 | -95.60984 | 5548 ft | 223 kts | 99° |
| 2026-04-12 05:11 | 29.47601 | -95.59224 | 5350 ft | 221 kts | 99° |
| 2026-04-12 05:11 | 29.47472 | -95.57496 | 5149 ft | 219 kts | 99° |
| 2026-04-12 05:11 | 29.47342 | -95.55766 | 4947 ft | 217 kts | 99° |
| 2026-04-12 05:12 | 29.47212 | -95.54047 | 4734 ft | 215 kts | 99° |
| 2026-04-12 05:12 | 29.47082 | -95.52345 | 4535 ft | 213 kts | 99° |
| 2026-04-12 05:12 | 29.46953 | -95.50654 | 4337 ft | 212 kts | 100° |
| 2026-04-12 05:12 | 29.46830 | -95.48972 | 4147 ft | 212 kts | 97° |
| 2026-04-12 05:13 | 29.47175 | -95.47305 | 3874 ft | 227 kts | 60° |
| 2026-04-12 05:13 | 29.48277 | -95.46000 | 3752 ft | 228 kts | 49° |
| 2026-04-12 05:13 | 29.49400 | -95.44726 | 3453 ft | 226 kts | 51° |
| 2026-04-12 05:13 | 29.50512 | -95.43458 | 3224 ft | 227 kts | 50° |
| 2026-04-12 05:14 | 29.51654 | -95.42178 | 2997 ft | 231 kts | 51° |
| 2026-04-12 05:14 | 29.52783 | -95.40923 | 2737 ft | 225 kts | 50° |
| 2026-04-12 05:14 | 29.53885 | -95.39701 | 2487 ft | 214 kts | 52° |
| 2026-04-12 05:14 | 29.54918 | -95.38553 | 2270 ft | 200 kts | 52° |
| 2026-04-12 05:15 | 29.55885 | -95.37478 | 2063 ft | 187 kts | 52° |
| 2026-04-12 05:15 | 29.56771 | -95.36494 | 1960 ft | 169 kts | 55° |
| 2026-04-12 05:15 | 29.57571 | -95.35603 | 1786 ft | 151 kts | 55° |
| 2026-04-12 05:15 | 29.58292 | -95.34799 | 1554 ft | 139 kts | 54° |
| 2026-04-12 05:16 | 29.58979 | -95.34032 | 1393 ft | 136 kts | 54° |
| 2026-04-12 05:16 | 29.59666 | -95.33265 | 1200 ft | 139 kts | 53° |
| 2026-04-12 05:16 | 29.60363 | -95.32491 | 1030 ft | 139 kts | 54° |
| 2026-04-12 05:16 | 29.61042 | -95.31722 | 819 ft | 136 kts | 53° |
| 2026-04-12 05:17 | 29.61717 | -95.30978 | 635 ft | 138 kts | 51° |
| 2026-04-12 05:17 | 29.62405 | -95.30216 | 522 ft | 139 kts | 47° |
| 2026-04-12 05:17 | 29.63078 | -95.29469 | 321 ft | 133 kts | 45° |
| 2026-04-12 05:17 | 29.63766 | -95.28709 | 144 ft | 139 kts | 49° |
| 2026-04-12 05:18 | 29.64427 | -95.27968 | 48 ft | 113 kts | 43° |
| 2026-04-12 05:18 | 29.64725 | -95.27635 | 52 ft | 38 kts | 44° |
| 2026-04-12 05:18 | 29.64905 | -95.27519 | 52 ft | 25 kts | 357° |
| 2026-04-12 05:18 | 29.65023 | -95.27524 | 51 ft | 9 kts | 359° |
| 2026-04-12 05:19 | 29.65048 | -95.27524 | 51 ft | 3 kts | 359° |
| 2026-04-12 05:19 | 29.65072 | -95.27525 | 51 ft | 3 kts | 359° |
| 2026-04-12 05:19 | 29.65098 | -95.27525 | 51 ft | 4 kts | 0° |
| 2026-04-12 05:19 | 29.65156 | -95.27517 | 51 ft | 12 kts | 14° |
| 2026-04-12 05:20 | 29.65208 | -95.27499 | 51 ft | 0 kts | 18° |